createdAt,value
2022-08-30T00:00:00.395Z,247.5
2022-08-30T00:05:00.357Z,247.5
2022-08-30T00:10:00.410Z,247.5
2022-08-30T00:15:00.387Z,247.5
2022-08-30T00:20:00.382Z,247.5
2022-08-30T00:25:00.392Z,247.5
2022-08-30T00:30:00.334Z,247.5
2022-08-30T00:35:00.386Z,247.5
2022-08-30T00:40:00.699Z,247.5
2022-08-30T00:45:00.402Z,247.5
2022-08-30T00:50:00.403Z,278.9
2022-08-30T00:55:00.421Z,314.8
2022-08-30T01:00:00.403Z,315.0
2022-08-30T01:05:00.430Z,315.0
2022-08-30T01:10:00.336Z,315.0
2022-08-30T01:15:00.398Z,315.0
2022-08-30T01:20:00.354Z,315.0
2022-08-30T01:25:00.370Z,315.0
2022-08-30T01:30:00.468Z,315.0
2022-08-30T01:35:00.367Z,315.0
2022-08-30T01:40:00.821Z,315.0
2022-08-30T01:45:00.386Z,315.0
2022-08-30T01:50:00.407Z,315.0
2022-08-30T01:55:00.405Z,272.0
2022-08-30T02:00:00.415Z,270.0
2022-08-30T02:05:00.376Z,270.0
2022-08-30T02:10:00.358Z,270.0
2022-08-30T02:15:00.549Z,270.0
2022-08-30T02:20:00.376Z,270.0
2022-08-30T02:25:00.392Z,270.0
2022-08-30T02:30:00.424Z,270.0
2022-08-30T02:35:00.399Z,248.8
2022-08-30T02:40:00.796Z,247.5
2022-08-30T02:45:00.446Z,247.5
2022-08-30T02:50:00.358Z,247.5
2022-08-30T02:55:00.375Z,206.1
2022-08-30T03:00:00.501Z,202.5
2022-08-30T03:05:00.342Z,202.5
2022-08-30T03:10:00.398Z,202.5
2022-08-30T03:15:00.467Z,202.5
2022-08-30T03:20:00.455Z,202.5
2022-08-30T03:25:00.380Z,202.5
2022-08-30T03:30:00.359Z,202.5
2022-08-30T03:35:00.374Z,202.5
2022-08-30T03:40:00.650Z,202.5
2022-08-30T03:45:00.403Z,266.1
2022-08-30T03:50:00.428Z,270.0
2022-08-30T03:55:00.344Z,270.0
2022-08-30T04:00:00.466Z,270.0
2022-08-30T04:05:00.319Z,270.0
2022-08-30T04:10:00.397Z,270.0
2022-08-30T04:15:00.413Z,270.0
2022-08-30T04:20:00.350Z,270.0
2022-08-30T04:25:00.404Z,270.0
2022-08-30T04:30:00.437Z,270.0
2022-08-30T04:35:00.381Z,270.0
2022-08-30T04:40:00.961Z,270.0
2022-08-30T04:45:00.399Z,270.0
2022-08-30T04:50:00.398Z,270.0
2022-08-30T04:55:00.388Z,270.0
2022-08-30T05:00:00.422Z,270.0
2022-08-30T05:05:00.360Z,270.0
2022-08-30T05:10:00.428Z,321.3
2022-08-30T05:15:00.374Z,30.6
2022-08-30T05:20:00.380Z,48.5
2022-08-30T05:25:00.387Z,45.0
2022-08-30T05:30:00.371Z,45.0
2022-08-30T05:35:00.361Z,45.0
2022-08-30T05:40:00.637Z,45.0
2022-08-30T05:45:00.393Z,80.0
2022-08-30T05:50:00.375Z,182.4
2022-08-30T05:55:00.390Z,202.4
2022-08-30T06:00:00.924Z,246.2
2022-08-30T06:05:00.331Z,247.5
2022-08-30T06:10:00.391Z,247.5
2022-08-30T06:15:00.373Z,292.5
2022-08-30T06:20:00.371Z,337.3
2022-08-30T06:25:00.372Z,11.6
2022-08-30T06:30:00.391Z,3.9
2022-08-30T06:35:00.363Z,45.6
2022-08-30T06:40:00.828Z,50.6
2022-08-30T06:45:00.512Z,41.2
2022-08-30T06:50:01.031Z,39.5
2022-08-30T06:55:00.385Z,40.4
2022-08-30T07:00:00.426Z,13.4
2022-08-30T07:05:00.358Z,38.3
2022-08-30T07:10:00.422Z,57.3
2022-08-30T07:15:00.395Z,46.9
2022-08-30T07:20:00.406Z,52.2
2022-08-30T07:25:00.436Z,56.9
2022-08-30T07:30:00.380Z,64.7
2022-08-30T07:35:00.393Z,48.2
2022-08-30T07:40:00.781Z,65.1
2022-08-30T07:45:00.370Z,54.0
2022-08-30T07:50:00.441Z,51.8
2022-08-30T07:55:00.400Z,49.2
2022-08-30T08:00:00.400Z,70.6
2022-08-30T08:05:00.377Z,71.4
2022-08-30T08:10:00.384Z,56.1
2022-08-30T08:15:09.237Z,55.9
2022-08-30T08:20:00.373Z,47.4
2022-08-30T08:25:00.425Z,66.2
2022-08-30T08:30:00.427Z,67.6
2022-08-30T08:35:00.465Z,72.2
2022-08-30T08:40:00.704Z,67.3
2022-08-30T08:45:00.761Z,80.6
2022-08-30T08:50:00.380Z,85.9
2022-08-30T08:55:00.486Z,117.5
2022-08-30T09:00:00.439Z,102.0
2022-08-30T09:05:00.659Z,157.5
2022-08-30T09:10:00.406Z,142.3
2022-08-30T09:15:00.429Z,102.5
2022-08-30T09:20:00.594Z,118.4
2022-08-30T09:25:01.099Z,1.9
2022-08-30T09:30:00.370Z,64.2
2022-08-30T09:35:00.418Z,68.4
2022-08-30T09:40:00.832Z,57.9
2022-08-30T09:45:04.392Z,73.5
2022-08-30T09:50:00.355Z,147.4
2022-08-30T09:55:00.445Z,88.9
2022-08-30T10:00:00.374Z,65.1
2022-08-30T10:05:00.378Z,92.7
2022-08-30T10:10:00.803Z,91.3
2022-08-30T10:15:00.447Z,343.3
2022-08-30T10:20:00.408Z,40.1
2022-08-30T10:25:00.432Z,53.0
2022-08-30T10:30:00.745Z,29.6
2022-08-30T10:35:00.417Z,99.9
2022-08-30T10:40:01.501Z,9.1
2022-08-30T10:45:00.458Z,40.3
2022-08-30T10:50:04.794Z,40.5
2022-08-30T10:55:00.837Z,113.6
2022-08-30T11:00:06.324Z,159.8
2022-08-30T11:05:01.055Z,49.0
2022-08-30T11:10:00.403Z,49.2
2022-08-30T11:15:00.345Z,359.1
2022-08-30T11:20:00.400Z,23.9
2022-08-30T11:25:00.536Z,29.0
2022-08-30T11:30:00.421Z,22.7
2022-08-30T11:35:01.009Z,345.2
2022-08-30T11:40:05.246Z,60.3
2022-08-30T11:45:00.617Z,354.4
2022-08-30T11:50:00.389Z,60.4
2022-08-30T11:55:00.376Z,58.6
2022-08-30T12:00:01.075Z,53.9
2022-08-30T12:05:00.361Z,155.0
2022-08-30T12:10:00.382Z,52.7
2022-08-30T12:15:00.434Z,7.3
2022-08-30T12:20:01.855Z,54.8
2022-08-30T12:25:00.400Z,72.2
2022-08-30T12:30:00.476Z,77.7
2022-08-30T12:35:00.387Z,70.9
2022-08-30T12:40:00.741Z,69.4
2022-08-30T12:45:00.370Z,48.9
2022-08-30T12:50:00.517Z,34.5
2022-08-30T12:55:01.650Z,18.4
2022-08-30T13:00:02.947Z,4.2
2022-08-30T13:05:00.797Z,34.0
2022-08-30T13:10:00.349Z,34.2
2022-08-30T13:15:00.398Z,12.0
2022-08-30T13:20:01.517Z,36.8
2022-08-30T13:25:00.369Z,3.2
2022-08-30T13:30:00.867Z,4.1
2022-08-30T13:35:00.381Z,5.8
2022-08-30T13:40:05.215Z,2.7
2022-08-30T13:45:00.363Z,13.3
2022-08-30T13:50:01.207Z,25.6
2022-08-30T13:55:00.426Z,42.6
2022-08-30T14:00:00.447Z,34.6
2022-08-30T14:05:06.572Z,45.9
2022-08-30T14:10:30.800Z,3.6
2022-08-30T14:15:00.442Z,43.0
2022-08-30T14:20:00.365Z,38.2
2022-08-30T14:25:00.378Z,42.9
2022-08-30T14:30:00.680Z,47.2
2022-08-30T14:35:00.397Z,59.3
2022-08-30T14:40:06.132Z,47.7
2022-08-30T14:45:00.919Z,49.5
2022-08-30T14:50:00.984Z,36.6
2022-08-30T14:55:09.884Z,36.1
2022-08-30T15:00:00.414Z,30.5
2022-08-30T15:05:00.371Z,39.3
2022-08-30T15:10:01.557Z,28.9
2022-08-30T15:15:01.703Z,12.0
2022-08-30T15:20:00.875Z,9.9
2022-08-30T15:25:01.389Z,37.2
2022-08-30T15:30:00.391Z,16.7
2022-08-30T15:35:00.423Z,34.1
2022-08-30T15:40:05.089Z,32.8
2022-08-30T15:45:00.738Z,21.6
2022-08-30T15:50:00.386Z,8.0
2022-08-30T15:55:00.413Z,3.3
2022-08-30T16:00:06.702Z,15.9
2022-08-30T16:05:00.361Z,3.8
2022-08-30T16:10:00.409Z,2.1
2022-08-30T16:15:00.377Z,355.5
2022-08-30T16:20:00.361Z,19.0
2022-08-30T16:25:00.419Z,34.3
2022-08-30T16:30:00.393Z,10.2
2022-08-30T16:35:00.976Z,10.0
2022-08-30T16:40:01.761Z,36.4
2022-08-30T16:45:11.194Z,42.8
2022-08-30T16:50:00.918Z,33.7
2022-08-30T16:55:01.862Z,28.5
2022-08-30T17:00:00.646Z,24.1
2022-08-30T17:05:00.330Z,41.8
2022-08-30T17:10:00.375Z,32.5
2022-08-30T17:15:00.393Z,42.0
2022-08-30T17:20:00.371Z,42.0
2022-08-30T17:25:00.416Z,32.7
2022-08-30T17:30:00.420Z,39.3
2022-08-30T17:35:00.402Z,32.2
2022-08-30T17:40:01.052Z,39.0
2022-08-30T17:45:07.924Z,38.7
2022-08-30T17:50:00.774Z,37.4
2022-08-30T17:55:00.352Z,45.9
2022-08-30T18:00:00.373Z,40.0
2022-08-30T18:05:00.391Z,47.7
2022-08-30T18:10:00.364Z,46.7
2022-08-30T18:15:00.813Z,37.3
2022-08-30T18:20:07.409Z,33.3
2022-08-30T18:25:03.131Z,46.8
2022-08-30T18:30:00.397Z,44.1
2022-08-30T18:35:00.530Z,36.7
2022-08-30T18:40:01.479Z,23.2
2022-08-30T18:45:15.828Z,23.1
2022-08-30T18:50:00.335Z,49.4
2022-08-30T18:55:00.362Z,51.8
2022-08-30T19:00:00.882Z,22.1
2022-08-30T19:05:01.397Z,0.1
2022-08-30T19:10:01.758Z,351.2
2022-08-30T19:15:00.738Z,19.4
2022-08-30T19:20:00.352Z,30.8
2022-08-30T19:25:00.368Z,42.6
2022-08-30T19:30:01.258Z,50.3
2022-08-30T19:35:02.785Z,43.3
2022-08-30T19:40:01.511Z,40.8
2022-08-30T19:45:00.470Z,34.9
2022-08-30T19:50:00.354Z,14.1
2022-08-30T19:55:00.368Z,35.8
2022-08-30T20:00:00.396Z,32.4
2022-08-30T20:05:00.368Z,37.2
2022-08-30T20:10:00.349Z,38.1
2022-08-30T20:15:01.054Z,21.3
2022-08-30T20:20:00.913Z,2.2
2022-08-30T20:25:00.483Z,26.0
2022-08-30T20:30:00.346Z,31.8
2022-08-30T20:35:00.370Z,27.5
2022-08-30T20:40:00.765Z,41.8
2022-08-30T20:45:00.350Z,31.7
2022-08-30T20:50:00.426Z,44.5
2022-08-30T20:55:00.339Z,34.8
2022-08-30T21:00:00.730Z,39.5
2022-08-30T21:05:00.373Z,36.0
2022-08-30T21:10:00.423Z,43.9
2022-08-30T21:20:00.392Z,50.4
2022-08-30T21:25:00.335Z,42.0
2022-08-30T21:30:00.371Z,47.9
2022-08-30T21:35:00.356Z,38.7
2022-08-30T21:40:00.702Z,50.5
2022-08-30T21:45:00.375Z,53.3
2022-08-30T21:50:00.332Z,48.5
2022-08-30T21:55:00.388Z,44.4
2022-08-30T22:00:00.420Z,51.0
2022-08-30T22:05:00.435Z,37.8
2022-08-30T22:10:00.344Z,44.7
2022-08-30T22:15:00.879Z,47.9
2022-08-30T22:20:00.388Z,39.9
2022-08-30T22:25:00.380Z,44.0
2022-08-30T22:30:00.415Z,43.1
2022-08-30T22:35:00.321Z,40.8
2022-08-30T22:40:00.677Z,34.3
2022-08-30T22:45:00.396Z,46.6
2022-08-30T22:50:00.447Z,22.1
2022-08-30T22:55:00.368Z,19.3
2022-08-30T23:00:00.425Z,7.3
2022-08-30T23:05:00.370Z,19.4
2022-08-30T23:10:00.416Z,31.1
2022-08-30T23:15:00.346Z,18.8
2022-08-30T23:20:00.421Z,27.5
2022-08-30T23:25:00.337Z,23.7
2022-08-30T23:30:00.511Z,35.2
2022-08-30T23:35:00.385Z,36.9
2022-08-30T23:40:00.634Z,41.8
2022-08-30T23:45:00.370Z,36.9
2022-08-30T23:50:01.651Z,31.5
2022-08-30T23:55:00.387Z,38.2
